createdAt,value
2022-10-26T00:01:32.223Z,17.83
2022-10-26T00:04:01.059Z,14.93
2022-10-26T00:06:30.274Z,15.67
2022-10-26T00:09:00.723Z,16.30
2022-10-26T00:11:29.644Z,14.23
2022-10-26T00:13:58.524Z,16.33
2022-10-26T00:16:29.099Z,15.73
2022-10-26T00:18:57.737Z,15.90
2022-10-26T00:21:26.406Z,17.43
2022-10-26T00:23:55.230Z,17.13
2022-10-26T00:26:25.664Z,18.90
2022-10-26T00:28:55.069Z,17.07
2022-10-26T00:31:24.456Z,17.33
2022-10-26T00:33:54.410Z,15.03
2022-10-26T00:36:23.505Z,14.17
2022-10-26T00:38:53.119Z,13.97
2022-10-26T00:41:25.324Z,15.40
2022-10-26T00:43:55.188Z,17.70
2022-10-26T00:46:27.943Z,17.93
2022-10-26T00:49:00.325Z,17.67
2022-10-26T00:51:33.667Z,17.50
2022-10-26T00:54:06.023Z,17.77
2022-10-26T00:56:37.030Z,18.23
2022-10-26T00:59:07.846Z,18.60
2022-10-26T01:01:39.100Z,20.07
2022-10-26T01:04:08.044Z,21.67
2022-10-26T01:06:38.691Z,20.97
2022-10-26T01:09:08.025Z,21.77
2022-10-26T01:11:38.341Z,19.93
2022-10-26T01:14:11.140Z,19.27
2022-10-26T01:16:55.036Z,20.50
2022-10-26T01:20:08.595Z,22.30
2022-10-26T01:22:41.395Z,22.87
2022-10-26T01:25:21.277Z,23.33
2022-10-26T01:27:54.020Z,22.10
2022-10-26T01:30:32.617Z,22.67
2022-10-26T01:33:17.768Z,20.63
2022-10-26T01:35:56.838Z,21.07
2022-10-26T01:38:32.038Z,22.23
2022-10-26T01:41:10.057Z,24.93
2022-10-26T01:43:43.198Z,24.10
2022-10-26T01:46:14.711Z,28.47
2022-10-26T01:48:45.270Z,29.57
2022-10-26T01:51:15.560Z,33.30
2022-10-26T01:53:47.447Z,30.93
2022-10-26T01:56:21.846Z,30.43
2022-10-26T01:59:22.983Z,29.93
2022-10-26T02:02:36.873Z,32.97
2022-10-26T02:05:32.129Z,30.40
2022-10-26T02:08:16.749Z,27.13
2022-10-26T02:10:54.320Z,29.63
2022-10-26T02:13:34.756Z,27.20
2022-10-26T02:16:20.286Z,27.50
2022-10-26T02:18:55.576Z,25.80
2022-10-26T02:21:33.027Z,25.03
2022-10-26T02:24:01.846Z,27.33
2022-10-26T02:26:32.499Z,24.03
2022-10-26T02:29:06.174Z,23.93
2022-10-26T02:31:36.463Z,24.43
2022-10-26T02:34:11.012Z,22.07
2022-10-26T02:36:45.791Z,22.80
2022-10-26T02:39:17.722Z,23.53
2022-10-26T02:41:47.408Z,24.67
2022-10-26T02:44:22.901Z,27.20
2022-10-26T02:46:53.167Z,19.20
2022-10-26T02:49:22.697Z,24.33
2022-10-26T02:52:01.016Z,21.73
2022-10-26T02:54:36.144Z,22.47
2022-10-26T02:57:14.398Z,21.37
2022-10-26T02:59:47.672Z,24.30
2022-10-26T03:02:18.522Z,21.77
2022-10-26T03:04:47.373Z,26.17
2022-10-26T03:07:22.280Z,24.67
2022-10-26T03:09:51.464Z,26.20
2022-10-26T03:12:20.677Z,27.33
2022-10-26T03:14:49.521Z,26.87
2022-10-26T03:17:18.384Z,26.17
2022-10-26T03:19:47.149Z,23.60
2022-10-26T03:22:16.005Z,21.80
2022-10-26T03:24:46.484Z,26.17
2022-10-26T03:27:15.910Z,18.83
2022-10-26T03:29:44.741Z,22.10
2022-10-26T03:32:13.613Z,22.77
2022-10-26T03:34:42.251Z,36.67
2022-10-26T03:37:11.037Z,29.30
2022-10-26T03:39:39.681Z,28.63
2022-10-26T03:42:09.950Z,24.93
2022-10-26T03:44:38.869Z,21.30
2022-10-26T03:47:07.530Z,21.13
2022-10-26T03:49:36.465Z,22.40
2022-10-26T03:52:05.904Z,25.63
2022-10-26T03:54:34.739Z,21.97
2022-10-26T03:57:03.669Z,26.50
2022-10-26T03:59:34.151Z,22.57
2022-10-26T04:02:02.697Z,21.60
2022-10-26T04:04:31.578Z,21.50
2022-10-26T04:07:00.525Z,21.03
2022-10-26T04:09:29.309Z,24.10
2022-10-26T04:11:58.378Z,24.87
2022-10-26T04:14:27.153Z,20.60
2022-10-26T04:16:57.520Z,15.80
2022-10-26T04:19:26.369Z,17.27
2022-10-26T04:21:55.144Z,17.70
2022-10-26T04:24:24.015Z,17.20
2022-10-26T04:26:52.715Z,17.00
2022-10-26T04:29:21.652Z,18.47
2022-10-26T04:31:50.553Z,17.67
2022-10-26T04:34:20.967Z,16.83
2022-10-26T04:36:49.650Z,16.53
2022-10-26T04:39:18.501Z,17.27
2022-10-26T04:41:47.118Z,20.20
2022-10-26T04:44:15.996Z,18.97
2022-10-26T04:46:44.745Z,25.17
2022-10-26T04:49:13.351Z,19.00
2022-10-26T04:51:43.247Z,17.43
2022-10-26T04:54:12.091Z,17.13
2022-10-26T04:56:40.708Z,21.93
2022-10-26T04:59:09.291Z,18.17
2022-10-26T05:01:37.951Z,20.60
2022-10-26T05:04:06.527Z,16.50
2022-10-26T05:06:35.122Z,20.87
2022-10-26T05:09:05.221Z,17.83
2022-10-26T05:11:33.725Z,19.10
2022-10-26T05:14:02.212Z,16.93
2022-10-26T05:16:30.792Z,17.40
2022-10-26T05:18:59.345Z,16.80
2022-10-26T05:21:27.959Z,16.67
2022-10-26T05:23:56.479Z,14.67
2022-10-26T05:26:26.457Z,16.80
2022-10-26T05:28:54.965Z,16.87
2022-10-26T05:31:23.442Z,17.37
2022-10-26T05:33:52.528Z,16.27
2022-10-26T05:36:21.704Z,21.33
2022-10-26T05:38:50.329Z,18.00
2022-10-26T05:41:18.925Z,17.07
2022-10-26T05:43:50.453Z,17.27
2022-10-26T05:46:19.063Z,17.73
2022-10-26T05:48:48.197Z,16.60
2022-10-26T05:51:16.996Z,17.10
2022-10-26T05:53:45.777Z,17.70
2022-10-26T05:56:21.132Z,18.67
2022-10-26T05:58:52.330Z,18.73
2022-10-26T06:01:31.533Z,16.43
2022-10-26T06:04:12.841Z,18.30
2022-10-26T06:06:45.423Z,16.07
2022-10-26T06:09:15.671Z,16.83
2022-10-26T06:11:44.910Z,18.10
2022-10-26T06:14:15.542Z,16.80
2022-10-26T06:16:57.651Z,15.53
2022-10-26T06:19:36.880Z,15.90
2022-10-26T06:22:22.509Z,18.23
2022-10-26T06:24:57.657Z,17.17
2022-10-26T06:27:36.319Z,13.93
2022-10-26T06:30:10.103Z,14.60
2022-10-26T06:32:39.710Z,23.73
2022-10-26T06:35:22.420Z,24.13
2022-10-26T06:37:52.700Z,20.47
2022-10-26T06:40:22.447Z,18.40
2022-10-26T06:42:51.681Z,37.17
2022-10-26T06:45:22.766Z,22.83
2022-10-26T06:47:58.718Z,19.27
2022-10-26T06:50:34.170Z,19.63
2022-10-26T06:53:12.489Z,17.53
2022-10-26T06:55:44.738Z,18.13
2022-10-26T06:58:17.516Z,18.30
2022-10-26T07:00:50.479Z,16.97
2022-10-26T07:03:19.578Z,17.73
2022-10-26T07:05:48.510Z,22.27
2022-10-26T07:08:17.026Z,22.97
2022-10-26T07:10:45.563Z,24.10
2022-10-26T07:13:14.403Z,22.47
2022-10-26T07:15:43.579Z,19.13
2022-10-26T07:18:13.529Z,20.00
2022-10-26T07:20:43.980Z,19.63
2022-10-26T07:23:12.598Z,21.23
2022-10-26T07:25:41.717Z,21.03
2022-10-26T07:28:11.990Z,16.03
2022-10-26T07:30:41.479Z,17.77
2022-10-26T07:33:12.113Z,16.93
2022-10-26T07:35:42.762Z,16.30
2022-10-26T07:38:13.320Z,15.97
2022-10-26T07:40:42.324Z,14.97
2022-10-26T07:43:10.876Z,15.77
2022-10-26T07:45:40.719Z,15.23
2022-10-26T07:48:09.491Z,14.70
2022-10-26T07:50:38.241Z,15.30
2022-10-26T07:53:08.654Z,16.33
2022-10-26T07:55:37.248Z,17.00
2022-10-26T07:58:05.863Z,16.43
2022-10-26T08:00:34.717Z,19.10
2022-10-26T08:03:03.385Z,18.63
2022-10-26T08:08:07.848Z,17.93
2022-10-26T08:10:36.622Z,17.97
2022-10-26T08:13:05.424Z,17.47
2022-10-26T08:15:34.042Z,19.37
2022-10-26T08:18:02.921Z,17.17
2022-10-26T08:20:31.896Z,18.27
2022-10-26T08:23:01.285Z,18.30
2022-10-26T08:25:31.667Z,18.60
2022-10-26T08:28:03.265Z,18.67
2022-10-26T08:30:32.471Z,19.97
2022-10-26T08:33:02.446Z,18.40
2022-10-26T08:35:31.349Z,19.30
2022-10-26T08:38:01.228Z,18.70
2022-10-26T08:40:33.638Z,17.30
2022-10-26T08:43:06.503Z,19.90
2022-10-26T08:45:39.823Z,17.47
2022-10-26T08:48:14.850Z,16.97
2022-10-26T08:50:48.805Z,16.60
2022-10-26T08:53:23.842Z,18.53
2022-10-26T08:55:57.898Z,17.60
2022-10-26T08:58:30.779Z,17.57
2022-10-26T09:01:01.359Z,16.93
2022-10-26T09:03:30.293Z,17.33
2022-10-26T09:06:11.618Z,15.73
2022-10-26T09:08:51.108Z,16.33
2022-10-26T09:11:33.989Z,15.97
2022-10-26T09:14:14.929Z,16.37
2022-10-26T09:16:56.302Z,15.37
2022-10-26T09:19:47.415Z,15.60
2022-10-26T09:22:22.870Z,15.60
2022-10-26T09:24:55.039Z,15.90
2022-10-26T09:27:29.164Z,15.03
2022-10-26T09:29:59.836Z,15.37
2022-10-26T09:32:36.194Z,15.83
2022-10-26T09:35:11.101Z,15.80
2022-10-26T09:37:45.223Z,15.83
2022-10-26T09:40:19.847Z,18.23
2022-10-26T09:42:55.680Z,18.47
2022-10-26T09:45:29.378Z,17.83
2022-10-26T09:48:05.185Z,19.63
2022-10-26T09:50:37.260Z,17.67
2022-10-26T09:53:06.004Z,16.57
2022-10-26T09:55:40.560Z,17.23
2022-10-26T09:58:16.422Z,16.43
2022-10-26T10:00:46.741Z,16.57
2022-10-26T10:03:23.644Z,17.60
2022-10-26T10:05:53.051Z,16.40
2022-10-26T10:08:23.879Z,16.77
2022-10-26T10:10:58.082Z,16.10
2022-10-26T10:13:30.997Z,17.97
2022-10-26T10:16:05.783Z,17.47
2022-10-26T10:18:36.217Z,19.03
2022-10-26T10:21:06.194Z,20.20
2022-10-26T10:23:36.430Z,20.27
2022-10-26T10:26:08.414Z,20.67
2022-10-26T10:28:39.570Z,16.33
2022-10-26T10:31:21.052Z,18.40
2022-10-26T10:33:50.636Z,18.40
2022-10-26T10:36:21.893Z,20.23
2022-10-26T10:38:52.262Z,17.00
2022-10-26T10:41:25.652Z,15.90
2022-10-26T10:43:58.714Z,17.40
2022-10-26T10:46:29.172Z,18.83
2022-10-26T10:49:04.939Z,19.47
2022-10-26T10:51:40.472Z,16.93
2022-10-26T10:54:22.609Z,17.23
2022-10-26T10:56:53.975Z,17.37
2022-10-26T10:59:55.743Z,16.63
2022-10-26T11:02:57.604Z,17.70
2022-10-26T11:05:40.707Z,17.50
2022-10-26T11:08:12.343Z,18.90
2022-10-26T11:10:43.357Z,18.17
2022-10-26T11:13:21.320Z,17.37
2022-10-26T11:15:57.477Z,17.30
2022-10-26T11:18:32.117Z,15.77
2022-10-26T11:21:05.735Z,15.67
2022-10-26T11:23:40.303Z,13.75
2022-10-26T11:26:15.689Z,13.02
2022-10-26T11:28:49.752Z,12.52
2022-10-26T11:31:24.570Z,13.05
2022-10-26T11:34:05.335Z,11.93
2022-10-26T11:36:36.556Z,11.52
2022-10-26T11:39:17.543Z,22.73
2022-10-26T11:41:52.297Z,11.02
2022-10-26T11:44:26.556Z,10.53
2022-10-26T11:47:01.077Z,11.15
2022-10-26T11:49:36.416Z,20.03
2022-10-26T11:52:14.676Z,12.25
2022-10-26T11:54:48.140Z,11.77
2022-10-26T11:57:17.757Z,10.97
2022-10-26T11:59:51.819Z,10.83
2022-10-26T12:02:23.797Z,10.50
2022-10-26T12:04:57.734Z,9.57
2022-10-26T12:07:31.389Z,8.67
2022-10-26T12:10:02.142Z,8.43
2022-10-26T12:12:39.918Z,6.78
2022-10-26T12:15:20.370Z,6.97
2022-10-26T12:17:56.270Z,7.47
2022-10-26T12:20:54.116Z,7.20
2022-10-26T12:23:34.050Z,6.07
2022-10-26T12:26:49.577Z,6.13
2022-10-26T12:29:38.500Z,6.20
2022-10-26T12:32:54.404Z,5.72
2022-10-26T12:35:42.509Z,5.55
2022-10-26T12:38:48.831Z,5.70
2022-10-26T12:41:26.169Z,6.32
2022-10-26T12:43:58.922Z,5.90
2022-10-26T12:46:43.519Z,6.10
2022-10-26T12:49:59.944Z,6.03
2022-10-26T12:52:43.859Z,6.22
2022-10-26T12:55:49.080Z,6.55
2022-10-26T12:58:53.714Z,5.80
2022-10-26T13:01:59.122Z,6.03
2022-10-26T13:04:47.399Z,6.32
2022-10-26T13:07:25.614Z,5.90
2022-10-26T13:10:00.995Z,6.53
2022-10-26T13:12:37.054Z,6.63
2022-10-26T13:15:19.986Z,5.95
2022-10-26T13:17:57.455Z,5.85
2022-10-26T13:20:26.636Z,5.90
2022-10-26T13:22:55.588Z,5.97
2022-10-26T13:25:29.090Z,5.43
2022-10-26T13:28:06.612Z,5.93
2022-10-26T13:30:47.103Z,5.85
2022-10-26T13:33:22.876Z,5.88
2022-10-26T13:35:55.525Z,9.15
2022-10-26T13:38:29.947Z,6.85
2022-10-26T13:41:08.983Z,6.35
2022-10-26T13:43:38.455Z,9.87
2022-10-26T13:46:07.359Z,10.00
2022-10-26T13:48:40.092Z,19.40
2022-10-26T13:51:19.316Z,14.05
2022-10-26T13:53:53.982Z,9.27
2022-10-26T13:56:32.146Z,10.53
2022-10-26T13:59:03.777Z,9.70
2022-10-26T14:01:33.624Z,6.50
2022-10-26T14:04:16.827Z,15.15
2022-10-26T14:06:49.828Z,11.52
2022-10-26T14:09:20.028Z,8.70
2022-10-26T14:11:52.173Z,7.18
2022-10-26T14:14:24.152Z,6.10
2022-10-26T14:16:54.486Z,6.80
2022-10-26T14:19:28.436Z,8.30
2022-10-26T14:21:57.795Z,7.68
2022-10-26T14:24:45.799Z,6.05
2022-10-26T14:27:18.269Z,6.40
2022-10-26T14:29:58.534Z,6.27
2022-10-26T14:32:37.112Z,6.13
2022-10-26T14:35:06.259Z,6.85
2022-10-26T14:37:42.991Z,6.78
2022-10-26T14:40:18.588Z,5.57
2022-10-26T14:42:51.531Z,4.82
2022-10-26T14:45:47.220Z,4.80
2022-10-26T14:48:24.268Z,4.40
2022-10-26T14:51:04.112Z,5.30
2022-10-26T14:53:37.923Z,6.00
2022-10-26T14:56:19.405Z,5.40
2022-10-26T14:58:50.152Z,5.20
2022-10-26T15:01:29.303Z,6.07
2022-10-26T15:04:02.947Z,4.90
2022-10-26T15:06:46.492Z,4.60
2022-10-26T15:09:43.933Z,5.20
2022-10-26T15:12:28.590Z,6.80
2022-10-26T15:15:06.680Z,6.70
2022-10-26T15:17:40.046Z,6.87
2022-10-26T15:20:16.689Z,8.07
2022-10-26T15:22:51.738Z,7.03
2022-10-26T15:25:23.237Z,6.90
2022-10-26T15:27:52.749Z,13.33
2022-10-26T15:30:26.480Z,19.73
2022-10-26T15:32:56.827Z,27.93
2022-10-26T15:35:34.676Z,56.87
2022-10-26T15:38:03.442Z,66.80
2022-10-26T15:40:33.280Z,33.87
2022-10-26T15:43:02.525Z,26.00
2022-10-26T15:45:35.294Z,16.30
2022-10-26T15:48:19.798Z,17.53
2022-10-26T15:50:48.723Z,23.43
2022-10-26T15:53:21.372Z,24.63
2022-10-26T15:55:51.490Z,38.53
2022-10-26T15:58:20.716Z,30.47
2022-10-26T16:00:51.275Z,32.73
2022-10-26T16:03:22.568Z,53.10
2022-10-26T16:05:57.295Z,63.33
2022-10-26T16:08:27.935Z,12.67
2022-10-26T16:10:56.972Z,9.57
2022-10-26T16:13:26.762Z,10.50
2022-10-26T16:15:57.029Z,11.77
2022-10-26T16:18:25.984Z,14.53
2022-10-26T16:20:54.914Z,14.00
2022-10-26T16:23:23.513Z,14.47
2022-10-26T16:25:52.337Z,14.23
2022-10-26T16:28:21.208Z,16.00
2022-10-26T16:30:50.076Z,19.40
2022-10-26T16:33:20.586Z,23.60
2022-10-26T16:35:57.521Z,29.33
2022-10-26T16:38:27.595Z,30.43
2022-10-26T16:41:03.117Z,33.60
2022-10-26T16:43:34.053Z,23.03
2022-10-26T16:46:07.217Z,18.47
2022-10-26T16:48:39.134Z,60.33
2022-10-26T16:51:12.958Z,147.33
2022-10-26T16:53:42.200Z,75.27
2022-10-26T16:56:13.669Z,68.20
2022-10-26T16:58:42.864Z,87.97
2022-10-26T17:01:14.089Z,119.83
2022-10-26T17:03:44.896Z,71.60
2022-10-26T17:06:14.190Z,56.67
2022-10-26T17:08:43.511Z,47.20
2022-10-26T17:11:14.021Z,36.03
2022-10-26T17:13:43.641Z,28.27
2022-10-26T17:16:14.979Z,27.57
2022-10-26T17:18:47.909Z,33.83
2022-10-26T17:21:20.005Z,34.37
2022-10-26T17:23:49.093Z,38.47
2022-10-26T17:26:18.018Z,51.23
2022-10-26T17:28:47.228Z,85.03
2022-10-26T17:31:16.942Z,70.37
2022-10-26T17:33:50.474Z,69.13
2022-10-26T17:36:21.543Z,54.63
2022-10-26T17:38:52.966Z,52.27
2022-10-26T17:41:23.770Z,53.27
2022-10-26T17:43:53.644Z,52.77
2022-10-26T17:46:24.718Z,50.37
2022-10-26T17:48:59.683Z,43.03
2022-10-26T17:51:30.933Z,38.13
2022-10-26T17:54:00.633Z,43.23
2022-10-26T17:56:31.909Z,41.77
2022-10-26T17:59:03.105Z,39.00
2022-10-26T18:01:33.044Z,35.17
2022-10-26T18:04:04.590Z,30.30
2022-10-26T18:06:34.582Z,36.10
2022-10-26T18:09:04.000Z,45.23
2022-10-26T18:11:33.950Z,45.80
2022-10-26T18:14:04.053Z,45.37
2022-10-26T18:16:33.804Z,47.03
2022-10-26T18:19:06.791Z,53.53
2022-10-26T18:21:38.957Z,46.10
2022-10-26T18:24:09.786Z,91.30
2022-10-26T18:26:39.694Z,127.40
2022-10-26T18:29:09.006Z,88.60
2022-10-26T18:31:38.303Z,56.90
2022-10-26T18:34:11.676Z,52.00
2022-10-26T18:36:41.379Z,48.60
2022-10-26T18:39:11.284Z,45.30
2022-10-26T18:41:41.419Z,33.73
2022-10-26T18:44:11.380Z,32.23
2022-10-26T18:46:45.518Z,28.47
2022-10-26T18:49:19.687Z,50.43
2022-10-26T18:51:50.027Z,40.93
2022-10-26T18:54:20.425Z,32.90
2022-10-26T18:56:50.064Z,41.80
2022-10-26T18:59:19.721Z,76.07
2022-10-26T19:01:51.360Z,132.73
2022-10-26T19:04:22.693Z,71.60
2022-10-26T19:06:51.865Z,52.97
2022-10-26T19:09:21.309Z,50.70
2022-10-26T19:11:50.389Z,42.77
2022-10-26T19:14:19.339Z,40.07
2022-10-26T19:16:48.314Z,38.20
2022-10-26T19:19:18.202Z,35.50
2022-10-26T19:21:49.989Z,45.13
2022-10-26T19:24:20.916Z,47.20
2022-10-26T19:26:51.059Z,41.47
2022-10-26T19:29:20.094Z,45.67
2022-10-26T19:31:51.873Z,49.23
2022-10-26T19:34:20.887Z,47.27
2022-10-26T19:36:51.419Z,65.00
2022-10-26T19:39:20.333Z,62.93
2022-10-26T19:41:49.271Z,47.83
2022-10-26T19:44:19.703Z,39.27
2022-10-26T19:46:49.881Z,39.27
2022-10-26T19:49:18.914Z,39.13
2022-10-26T19:51:48.420Z,49.07
2022-10-26T19:54:18.635Z,57.13
2022-10-26T19:56:47.464Z,43.93
2022-10-26T19:59:16.367Z,36.50
2022-10-26T20:01:45.282Z,32.67
2022-10-26T20:04:14.119Z,29.97
2022-10-26T20:06:42.989Z,30.40
2022-10-26T20:09:11.942Z,32.50
2022-10-26T20:11:43.457Z,31.60
2022-10-26T20:14:14.833Z,34.27
2022-10-26T20:16:43.685Z,37.90
2022-10-26T20:19:12.674Z,39.30
2022-10-26T20:21:41.416Z,38.90
2022-10-26T20:24:10.653Z,36.33
2022-10-26T20:26:40.192Z,35.47
2022-10-26T20:29:11.537Z,34.20
2022-10-26T20:31:40.289Z,41.83
2022-10-26T20:34:09.282Z,39.43
2022-10-26T20:36:38.054Z,33.80
2022-10-26T20:39:07.391Z,33.77
2022-10-26T20:41:42.740Z,32.77
2022-10-26T20:44:21.944Z,32.20
2022-10-26T20:46:51.486Z,31.80
2022-10-26T20:49:20.850Z,34.30
2022-10-26T20:52:15.727Z,38.67
2022-10-26T20:54:51.838Z,54.43
2022-10-26T20:57:23.957Z,59.50
2022-10-26T20:59:57.536Z,57.63
2022-10-26T21:02:27.877Z,62.00
2022-10-26T21:04:56.894Z,53.83
2022-10-26T21:07:25.794Z,46.67
2022-10-26T21:09:54.628Z,44.20
2022-10-26T21:12:24.122Z,39.50
2022-10-26T21:14:54.305Z,38.53
2022-10-26T21:17:23.138Z,38.43
2022-10-26T21:19:51.898Z,36.80
2022-10-26T21:22:20.725Z,37.20
2022-10-26T21:24:49.538Z,40.20
2022-10-26T21:27:18.486Z,38.47
2022-10-26T21:29:47.307Z,36.10
2022-10-26T21:32:17.369Z,35.47
2022-10-26T21:34:46.386Z,36.37
2022-10-26T21:37:15.224Z,35.97
2022-10-26T21:39:44.164Z,37.53
2022-10-26T21:42:12.959Z,40.90
2022-10-26T21:44:42.069Z,40.40
2022-10-26T21:47:12.700Z,41.87
2022-10-26T21:49:43.161Z,41.93
2022-10-26T21:52:12.281Z,42.10
2022-10-26T21:54:41.044Z,40.63
2022-10-26T21:57:09.726Z,41.83
2022-10-26T21:59:38.233Z,43.30
2022-10-26T22:02:07.226Z,42.63
2022-10-26T22:04:36.120Z,41.60
2022-10-26T22:07:06.372Z,40.30
2022-10-26T22:09:40.741Z,41.23
2022-10-26T22:12:18.495Z,41.30
2022-10-26T22:14:47.295Z,38.20
2022-10-26T22:17:15.803Z,37.60
2022-10-26T22:19:44.599Z,37.43
2022-10-26T22:22:15.072Z,38.87
2022-10-26T22:24:43.868Z,37.90
2022-10-26T22:27:12.640Z,38.40
2022-10-26T22:29:41.416Z,39.60
2022-10-26T22:32:10.162Z,37.40
2022-10-26T22:34:38.901Z,37.50
2022-10-26T22:37:07.705Z,37.43
2022-10-26T22:39:38.061Z,36.93
2022-10-26T22:42:07.268Z,38.00
2022-10-26T22:44:36.309Z,38.00
2022-10-26T22:47:05.112Z,38.70
2022-10-26T22:49:33.947Z,39.30
2022-10-26T22:52:02.704Z,39.10
2022-10-26T22:54:31.373Z,42.03
2022-10-26T22:57:01.538Z,39.57
2022-10-26T22:59:30.215Z,38.43
2022-10-26T23:01:58.907Z,37.47
2022-10-26T23:04:27.766Z,38.60
2022-10-26T23:06:56.533Z,39.87
2022-10-26T23:09:25.322Z,39.00
2022-10-26T23:11:53.885Z,39.73
2022-10-26T23:14:24.231Z,38.17
2022-10-26T23:16:53.073Z,38.67
2022-10-26T23:19:21.634Z,39.80
2022-10-26T23:21:50.504Z,41.73
2022-10-26T23:24:19.298Z,40.13
2022-10-26T23:26:48.153Z,38.67
2022-10-26T23:29:16.942Z,37.73
2022-10-26T23:31:47.227Z,39.00
2022-10-26T23:34:16.036Z,39.50
2022-10-26T23:36:44.683Z,38.50
2022-10-26T23:39:13.546Z,38.33
2022-10-26T23:41:42.174Z,38.27
2022-10-26T23:44:10.834Z,37.37
2022-10-26T23:46:39.401Z,39.27
2022-10-26T23:49:09.719Z,39.83
2022-10-26T23:51:38.469Z,39.00
2022-10-26T23:54:07.397Z,38.07
2022-10-26T23:56:36.190Z,37.70
2022-10-26T23:59:07.637Z,37.20
